Startpagina
METAR-TAF:

METAR-TAF

Vliegvelden :

Funafuti, Tuvalu

breedte: 08-31S, lengte: 179-13E, hoogte: 1 m

Actueel weer

Dit bericht is 47 minuten geleden gemaakt, om 02:00 UTC
Wind 1 kt uit het oosten
Temperatuur 28°C
Vochtigheid 84%
Druk 1008 hPa
Zicht 10 km of meer
Weinig wolken op 1900 ft
Gebroken wolken op 10000 ft

METAR: NGFU 250200Z 10001KT 9999 FEW019 BKN100 28/25 Q1008

Tijdstip: 14:47 (02:47 UTC)

Verwachting

Dit bericht is 3 uur en het 39 minuten geleden gemaakt, om 23:08 UTC
Verwachting geldig van 25 om 00 UTC tot 25 om 24 UTC
Wind 8 kt uit het zuidoosten
Zicht 10 km of meer
Verspreide wolken op 1800 ft
Gebroken wolken op 10000 ft

TAF: NGFU 242308Z 2500/2524 13008KT 9999 SCT018 BKN100

Waarnemingen en weersverwachtingen van meer dan 4000 vliegvelden (METAR en TAF).

De beschikbare stations zijn de gele en rode punten op de kaart.

Ga met uw muis naar het station om de naam te zien.

Klik dan om waarnemingen en weersverwachtingen te zien.

kaart wijzigen: klik op de groene knoppen met een zwart kruis om in te zoomen, op de groene knop met een streepje om uit te zoomen of op de groene pijlen voor aangrenzende kaarten.


METAR-TAF: